Time;durP1;ratioP1;P1;durP2;ratioP2;P2;SDS_P1;SDS_P2;PMS_P1;PMS_P2;Temp;Humidity;BMP_temperature;BMP_pressure;BME280_temperature;BME280_humidity;BME280_pressure;Samples;Min_cycle;Max_cycle;Signal;HPM_P1;HPM_P2
2022/11/21 00:00:10;;;;;;;57.60;29.43;;;;;;;;;;733401;190;919451;-59
2022/11/21 00:02:36;;;;;;;53.67;30.40;;;;;;;;;;734268;190;816740;-61
2022/11/21 00:05:02;;;;;;;55.10;27.77;;;;;;;;;;735796;190;919239;-59
2022/11/21 00:07:27;;;;;;;56.93;30.30;;;;;;;;;;732169;190;919090;-59
2022/11/21 00:09:53;;;;;;;63.77;30.07;;;;;;;;;;734450;190;916364;-59
2022/11/21 00:12:19;;;;;;;63.37;31.50;;;;;;;;;;733710;190;895326;-60
2022/11/21 00:14:45;;;;;;;56.27;29.57;;;;;;;;;;737677;190;921366;-59
2022/11/21 00:17:11;;;;;;;56.20;28.13;;;;;;;;;;734297;190;817636;-62
2022/11/21 00:19:37;;;;;;;55.22;30.85;;;;;;;;;;727720;191;919402;-63
2022/11/21 00:22:02;;;;;;;61.40;32.80;;;;;;;;;;736194;190;911113;-62
2022/11/21 00:24:29;;;;;;;58.03;33.43;;;;;;;;;;733897;190;918829;-60
2022/11/21 00:26:55;;;;;;;59.50;32.77;;;;;;;;;;734302;190;922264;-62
2022/11/21 00:29:21;;;;;;;58.07;31.10;;;;;;;;;;742428;190;819347;-60
2022/11/21 00:31:46;;;;;;;63.60;33.80;;;;;;;;;;732853;190;915527;-63
2022/11/21 00:34:12;;;;;;;54.33;28.97;;;;;;;;;;729318;190;916014;-60
2022/11/21 00:36:38;;;;;;;65.60;31.50;;;;;;;;;;736254;189;765448;-60
2022/11/21 00:39:04;;;;;;;64.47;33.67;;;;;;;;;;739491;189;819761;-63
2022/11/21 00:41:30;;;;;;;68.35;33.72;;;;;;;;;;737829;190;918682;-63
2022/11/21 00:43:56;;;;;;;57.97;32.63;;;;;;;;;;728811;191;1025141;-63
2022/11/21 00:46:22;;;;;;;63.00;35.10;;;;;;;;;;740041;190;850854;-64
2022/11/21 00:48:47;;;;;;;70.20;32.87;;;;;;;;;;730244;190;919319;-64
2022/11/21 00:51:13;;;;;;;58.50;31.93;;;;;;;;;;735555;190;918911;-60
2022/11/21 00:53:39;;;;;;;56.43;32.60;;;;;;;;;;741308;190;917117;-59
2022/11/21 00:56:05;;;;;;;60.80;31.57;;;;;;;;;;731086;190;918798;-60
2022/11/21 00:58:31;;;;;;;61.97;32.17;;;;;;;;;;733849;190;872379;-60
2022/11/21 01:01:01;;;;;;;58.87;32.37;;;;;;;;;;736391;190;918805;-60
2022/11/21 01:03:26;;;;;;;57.60;32.30;;;;;;;;;;736057;187;916434;-60
2022/11/21 01:05:52;;;;;;;54.30;31.20;;;;;;;;;;733505;187;915320;-58
2022/11/21 01:08:18;;;;;;;52.83;29.87;;;;;;;;;;735749;187;915657;-60
2022/11/21 01:10:44;;;;;;;53.50;28.90;;;;;;;;;;738199;190;918605;-60
2022/11/21 01:13:10;;;;;;;48.27;26.90;;;;;;;;;;733237;190;918802;-58
2022/11/21 01:15:36;;;;;;;55.47;29.90;;;;;;;;;;732373;190;919786;-60
2022/11/21 01:18:02;;;;;;;54.27;31.07;;;;;;;;;;734937;191;918572;-64
2022/11/21 01:20:27;;;;;;;57.63;30.33;;;;;;;;;;731996;190;922257;-61
2022/11/21 01:22:53;;;;;;;57.50;30.07;;;;;;;;;;732965;190;816326;-64
2022/11/21 01:25:19;;;;;;;50.50;27.93;;;;;;;;;;727373;191;919195;-63
2022/11/21 01:27:45;;;;;;;52.37;29.07;;;;;;;;;;732456;188;918998;-63
2022/11/21 01:30:13;;;;;;;48.95;28.70;;;;;;;;;;734023;188;918342;-63
2022/11/21 01:32:37;;;;;;;51.17;28.33;;;;;;;;;;733718;190;813987;-60
2022/11/21 01:35:04;;;;;;;56.43;27.70;;;;;;;;;;734278;190;915852;-60
2022/11/21 01:37:29;;;;;;;49.60;27.20;;;;;;;;;;733546;190;916003;-59
2022/11/21 01:39:55;;;;;;;62.03;32.70;;;;;;;;;;732009;190;917786;-59
2022/11/21 01:42:21;;;;;;;53.33;29.70;;;;;;;;;;741328;190;918708;-60
2022/11/21 01:44:47;;;;;;;58.90;29.87;;;;;;;;;;736869;190;919455;-60
2022/11/21 01:47:13;;;;;;;50.77;28.10;;;;;;;;;;733766;190;900849;-60
2022/11/21 01:49:39;;;;;;;54.10;30.80;;;;;;;;;;734119;190;918732;-62
2022/11/21 01:52:09;;;;;;;70.78;32.50;;;;;;;;;;733120;189;916927;-63
2022/11/21 01:54:38;;;;;;;55.17;30.57;;;;;;;;;;726225;190;919520;-61
2022/11/21 01:57:10;;;;;;;61.53;30.97;;;;;;;;;;732015;190;919225;-63
2022/11/21 01:59:36;;;;;;;52.67;27.77;;;;;;;;;;737957;189;886570;-60
2022/11/21 02:02:02;;;;;;;56.70;31.10;;;;;;;;;;742558;187;918616;-60
2022/11/21 02:04:28;;;;;;;49.03;28.90;;;;;;;;;;733176;188;919268;-64
2022/11/21 02:06:55;;;;;;;57.13;30.33;;;;;;;;;;733933;190;919337;-63
2022/11/21 02:09:21;;;;;;;59.40;30.90;;;;;;;;;;738298;190;921090;-59
2022/11/21 02:11:47;;;;;;;59.90;29.23;;;;;;;;;;735844;190;816957;-64
2022/11/21 02:14:13;;;;;;;54.30;29.67;;;;;;;;;;735453;190;1019768;-60
2022/11/21 02:16:39;;;;;;;54.93;28.97;;;;;;;;;;740717;190;813559;-63
2022/11/21 02:19:05;;;;;;;56.00;30.23;;;;;;;;;;727560;190;920972;-60
2022/11/21 02:21:47;;;;;;;55.80;29.73;;;;;;;;;;726778;191;919906;-63
2022/11/21 02:24:13;;;;;;;55.67;29.80;;;;;;;;;;734837;190;919235;-59
2022/11/21 02:26:39;;;;;;;52.53;28.23;;;;;;;;;;735441;190;909790;-61
2022/11/21 02:29:05;;;;;;;51.30;27.60;;;;;;;;;;737514;190;892824;-60
2022/11/21 02:31:30;;;;;;;45.93;26.73;;;;;;;;;;734987;190;919123;-63
2022/11/21 02:33:56;;;;;;;45.60;25.10;;;;;;;;;;734582;188;915308;-60
2022/11/21 02:36:26;;;;;;;46.47;25.67;;;;;;;;;;738577;190;921449;-60
2022/11/21 02:38:52;;;;;;;49.50;27.90;;;;;;;;;;732092;191;918773;-60
2022/11/21 02:41:25;;;;;;;38.47;21.87;;;;;;;;;;734747;190;918558;-62
2022/11/21 02:43:44;;;;;;;51.23;26.63;;;;;;;;;;730145;190;923886;-60
2022/11/21 02:46:10;;;;;;;47.03;25.77;;;;;;;;;;738441;188;920342;-61
2022/11/21 02:48:37;;;;;;;50.97;27.27;;;;;;;;;;729118;190;921269;-63
2022/11/21 02:51:02;;;;;;;47.13;26.83;;;;;;;;;;727061;190;1725685;-62
2022/11/21 02:53:28;;;;;;;45.13;25.60;;;;;;;;;;740066;190;821364;-64
2022/11/21 02:55:54;;;;;;;49.20;28.10;;;;;;;;;;734062;190;918850;-64
2022/11/21 02:58:19;;;;;;;51.40;28.67;;;;;;;;;;733112;190;921086;-61
2022/11/21 03:00:45;;;;;;;47.47;26.07;;;;;;;;;;736652;190;917851;-60
2022/11/21 03:03:11;;;;;;;50.33;27.03;;;;;;;;;;734990;190;917925;-60
2022/11/21 03:05:37;;;;;;;46.87;26.30;;;;;;;;;;731047;191;1123976;-60
2022/11/21 03:08:04;;;;;;;46.95;25.95;;;;;;;;;;731996;189;919142;-62
2022/11/21 03:10:30;;;;;;;49.17;27.10;;;;;;;;;;737403;190;907023;-63
2022/11/21 03:12:59;;;;;;;51.20;28.53;;;;;;;;;;733122;190;921553;-59
2022/11/21 03:15:21;;;;;;;53.20;28.30;;;;;;;;;;735441;190;919452;-64
2022/11/21 03:17:48;;;;;;;47.33;25.48;;;;;;;;;;740198;190;915952;-62
2022/11/21 03:20:13;;;;;;;50.23;25.93;;;;;;;;;;733649;190;919114;-60
2022/11/21 03:22:40;;;;;;;49.80;27.00;;;;;;;;;;732686;190;885184;-61
2022/11/21 03:25:06;;;;;;;52.60;27.93;;;;;;;;;;738520;190;912694;-59
2022/11/21 03:27:32;;;;;;;47.93;25.47;;;;;;;;;;734957;190;914615;-64
2022/11/21 03:29:58;;;;;;;48.40;25.67;;;;;;;;;;729393;190;915420;-63
2022/11/21 03:32:24;;;;;;;45.50;25.62;;;;;;;;;;733020;191;915579;-61
2022/11/21 03:34:50;;;;;;;46.10;26.00;;;;;;;;;;741240;187;916432;-60
2022/11/21 03:37:15;;;;;;;48.00;23.80;;;;;;;;;;736246;190;922965;-60
2022/11/21 03:39:41;;;;;;;51.23;26.50;;;;;;;;;;735189;190;920757;-64
2022/11/21 03:42:07;;;;;;;49.57;27.37;;;;;;;;;;739661;190;819836;-61
2022/11/21 03:44:33;;;;;;;54.42;27.30;;;;;;;;;;735985;190;919427;-61
2022/11/21 03:46:59;;;;;;;57.47;29.90;;;;;;;;;;732319;190;816662;-60
2022/11/21 03:49:25;;;;;;;62.40;31.80;;;;;;;;;;736406;190;913149;-63
2022/11/21 03:51:50;;;;;;;84.40;32.40;;;;;;;;;;730193;191;916988;-60
2022/11/21 03:54:16;;;;;;;68.07;31.17;;;;;;;;;;731103;191;919121;-60
2022/11/21 03:56:42;;;;;;;70.27;29.57;;;;;;;;;;739183;190;810757;-63
2022/11/21 03:59:08;;;;;;;82.90;30.07;;;;;;;;;;732000;190;912426;-60
2022/11/21 04:01:34;;;;;;;75.27;29.80;;;;;;;;;;733221;190;920566;-61
2022/11/21 04:04:00;;;;;;;87.03;32.13;;;;;;;;;;730782;190;1020347;-61
2022/11/21 04:06:26;;;;;;;98.73;33.47;;;;;;;;;;733343;191;916741;-63
2022/11/21 04:08:51;;;;;;;86.37;30.27;;;;;;;;;;730833;190;941023;-60
2022/11/21 04:11:17;;;;;;;133.55;33.53;;;;;;;;;;734204;188;936710;-64
2022/11/21 04:13:43;;;;;;;205.50;41.60;;;;;;;;;;737944;190;844937;-63
2022/11/21 04:16:09;;;;;;;300.83;43.17;;;;;;;;;;728212;190;1112089;-63
2022/11/21 04:18:35;;;;;;;236.33;41.30;;;;;;;;;;733434;190;918904;-60
2022/11/21 04:21:01;;;;;;;268.67;42.33;;;;;;;;;;736901;190;921678;-60
2022/11/21 04:23:27;;;;;;;325.90;48.10;;;;;;;;;;733873;190;833014;-61
2022/11/21 04:25:52;;;;;;;361.47;53.63;;;;;;;;;;733277;190;918403;-60
2022/11/21 04:28:18;;;;;;;259.80;43.70;;;;;;;;;;735392;189;920261;-59
2022/11/21 04:30:44;;;;;;;417.27;49.50;;;;;;;;;;745729;186;919231;-61
2022/11/21 04:33:10;;;;;;;341.20;47.07;;;;;;;;;;734514;190;920923;-63
2022/11/21 04:35:36;;;;;;;63.77;32.63;;;;;;;;;;727417;192;918236;-63
2022/11/21 04:38:02;;;;;;;80.33;32.50;;;;;;;;;;735915;190;919180;-64
2022/11/21 04:40:27;;;;;;;77.13;36.47;;;;;;;;;;730170;190;921143;-61
2022/11/21 04:42:53;;;;;;;87.15;36.30;;;;;;;;;;728105;190;918990;-62
2022/11/21 04:45:19;;;;;;;65.60;32.90;;;;;;;;;;742184;190;788018;-63
2022/11/21 04:47:45;;;;;;;66.13;33.27;;;;;;;;;;733201;190;901607;-60
2022/11/21 04:50:11;;;;;;;55.57;30.83;;;;;;;;;;732189;190;919006;-58
2022/11/21 04:52:38;;;;;;;47.78;28.12;;;;;;;;;;738080;190;915689;-60
2022/11/21 04:55:04;;;;;;;51.90;28.87;;;;;;;;;;743149;187;919788;-61
2022/11/21 04:57:30;;;;;;;53.93;30.07;;;;;;;;;;733126;190;917093;-62
2022/11/21 04:59:56;;;;;;;51.83;29.67;;;;;;;;;;734315;190;842943;-60
2022/11/21 05:02:22;;;;;;;53.73;36.73;;;;;;;;;;740319;190;933280;-61
2022/11/21 05:04:47;;;;;;;42.73;25.27;;;;;;;;;;735863;190;661158;-62
2022/11/21 05:07:13;;;;;;;55.77;35.00;;;;;;;;;;734189;190;624915;-59
2022/11/21 05:09:39;;;;;;;47.50;27.57;;;;;;;;;;739175;190;626028;-62
2022/11/21 05:14:37;;;;;;;62.90;32.67;;;;;;;;;;733107;190;919574;-62
2022/11/21 05:17:03;;;;;;;45.80;26.53;;;;;;;;;;734947;190;920179;-61
2022/11/21 05:19:29;;;;;;;55.73;30.23;;;;;;;;;;736879;190;851630;-61
2022/11/21 05:21:55;;;;;;;49.17;28.00;;;;;;;;;;733906;190;915271;-61
2022/11/21 05:24:20;;;;;;;50.60;28.77;;;;;;;;;;738018;188;641920;-59
2022/11/21 05:26:46;;;;;;;56.83;33.40;;;;;;;;;;739978;190;919467;-59
2022/11/21 05:29:12;;;;;;;54.00;29.40;;;;;;;;;;735326;189;922839;-59
2022/11/21 05:31:38;;;;;;;54.27;30.67;;;;;;;;;;735440;190;919793;-59
2022/11/21 05:34:04;;;;;;;48.23;28.37;;;;;;;;;;735670;190;919077;-62
2022/11/21 05:36:30;;;;;;;55.43;28.67;;;;;;;;;;731599;190;919922;-62
2022/11/21 05:38:55;;;;;;;64.20;32.20;;;;;;;;;;732136;191;919550;-62
2022/11/21 05:41:21;;;;;;;51.90;28.30;;;;;;;;;;735364;190;816731;-62
2022/11/21 05:43:48;;;;;;;58.75;29.15;;;;;;;;;;740927;190;814187;-59
2022/11/21 05:46:14;;;;;;;50.80;29.27;;;;;;;;;;735583;190;620509;-60
2022/11/21 05:48:40;;;;;;;63.80;32.27;;;;;;;;;;738110;190;632925;-59
2022/11/21 05:51:05;;;;;;;49.63;28.93;;;;;;;;;;739028;191;616868;-62
2022/11/21 05:53:31;;;;;;;55.47;28.20;;;;;;;;;;731130;190;918962;-61
2022/11/21 05:56:01;;;;;;;55.75;29.52;;;;;;;;;;733270;190;918282;-61
2022/11/21 05:58:27;;;;;;;52.30;30.67;;;;;;;;;;733830;190;915858;-62
2022/11/21 06:00:53;;;;;;;46.40;27.57;;;;;;;;;;738229;186;916159;-61
2022/11/21 06:05:50;;;;;;;49.15;28.25;;;;;;;;;;732968;190;880071;-60
2022/11/21 06:08:16;;;;;;;50.43;25.73;;;;;;;;;;738604;190;919026;-58
2022/11/21 06:10:42;;;;;;;51.13;29.00;;;;;;;;;;734741;190;918824;-59
2022/11/21 06:13:20;;;;;;;48.40;28.03;;;;;;;;;;735583;191;919406;-60
2022/11/21 06:15:35;;;;;;;46.00;26.57;;;;;;;;;;726512;190;919380;-60
2022/11/21 06:18:01;;;;;;;53.87;31.17;;;;;;;;;;731753;191;919886;-60
2022/11/21 06:20:27;;;;;;;45.33;26.37;;;;;;;;;;731036;190;919315;-58
2022/11/21 06:22:53;;;;;;;55.07;28.97;;;;;;;;;;732961;190;921919;-60
2022/11/21 06:25:19;;;;;;;51.90;26.13;;;;;;;;;;738359;190;918740;-59
2022/11/21 06:27:45;;;;;;;46.23;24.13;;;;;;;;;;730776;191;919161;-59
2022/11/21 06:30:10;;;;;;;44.50;25.07;;;;;;;;;;733919;190;918755;-61
2022/11/21 06:32:36;;;;;;;43.73;25.00;;;;;;;;;;741708;190;919288;-60
2022/11/21 06:35:02;;;;;;;52.10;26.90;;;;;;;;;;739243;189;815072;-58
2022/11/21 06:37:28;;;;;;;52.20;26.87;;;;;;;;;;738764;190;918269;-59
2022/11/21 06:39:54;;;;;;;53.90;29.43;;;;;;;;;;735181;190;918114;-60
2022/11/21 06:42:20;;;;;;;52.70;27.90;;;;;;;;;;747617;186;917084;-59
2022/11/21 06:44:46;;;;;;;45.10;24.83;;;;;;;;;;736193;190;918911;-60
2022/11/21 06:47:12;;;;;;;61.03;29.15;;;;;;;;;;736653;190;915390;-61
2022/11/21 06:49:37;;;;;;;49.90;26.97;;;;;;;;;;741297;190;918659;-60
2022/11/21 06:52:03;;;;;;;55.83;29.47;;;;;;;;;;735824;190;919687;-61
2022/11/21 06:54:29;;;;;;;50.43;26.53;;;;;;;;;;733271;190;918895;-59
2022/11/21 06:56:57;;;;;;;44.47;25.70;;;;;;;;;;737516;191;919212;-59
2022/11/21 06:59:21;;;;;;;42.97;24.97;;;;;;;;;;733368;190;918257;-61
2022/11/21 07:01:47;;;;;;;52.57;27.97;;;;;;;;;;732037;190;918763;-59
2022/11/21 07:04:13;;;;;;;42.40;26.17;;;;;;;;;;737193;190;818457;-59
2022/11/21 07:06:38;;;;;;;41.67;25.00;;;;;;;;;;730582;190;918949;-58
2022/11/21 07:09:04;;;;;;;37.57;19.23;;;;;;;;;;732196;190;918988;-59
2022/11/21 07:11:30;;;;;;;30.53;17.00;;;;;;;;;;731679;190;819422;-61
2022/11/21 07:13:56;;;;;;;31.30;17.87;;;;;;;;;;736156;190;918523;-62
2022/11/21 07:16:24;;;;;;;27.03;14.43;;;;;;;;;;729777;190;918785;-59
2022/11/21 07:18:48;;;;;;;25.58;14.63;;;;;;;;;;731721;190;912647;-61
2022/11/21 07:21:14;;;;;;;31.73;15.73;;;;;;;;;;736517;190;820624;-59
2022/11/21 07:23:39;;;;;;;33.30;15.88;;;;;;;;;;735152;190;919155;-60
2022/11/21 07:26:05;;;;;;;25.30;14.73;;;;;;;;;;732770;190;919120;-60
2022/11/21 07:28:31;;;;;;;24.57;14.77;;;;;;;;;;737047;190;919023;-61
2022/11/21 07:30:57;;;;;;;25.57;14.20;;;;;;;;;;731307;190;929620;-61
2022/11/21 07:33:23;;;;;;;31.83;15.30;;;;;;;;;;730259;190;923486;-62
2022/11/21 07:35:49;;;;;;;33.70;15.27;;;;;;;;;;730320;190;922234;-63
2022/11/21 07:38:14;;;;;;;27.30;14.73;;;;;;;;;;739194;187;918851;-61
2022/11/21 07:40:40;;;;;;;22.70;14.00;;;;;;;;;;731427;190;921221;-62
2022/11/21 07:43:06;;;;;;;24.90;13.43;;;;;;;;;;731323;190;1020157;-62
2022/11/21 07:45:32;;;;;;;21.57;12.43;;;;;;;;;;739736;190;846172;-63
2022/11/21 07:47:59;;;;;;;27.20;15.00;;;;;;;;;;739414;189;922835;-63
2022/11/21 07:50:25;;;;;;;26.33;15.27;;;;;;;;;;733303;189;919670;-62
2022/11/21 07:52:50;;;;;;;20.57;12.37;;;;;;;;;;738100;190;818019;-63
2022/11/21 07:55:16;;;;;;;18.83;12.07;;;;;;;;;;732397;189;950899;-61
2022/11/21 07:57:42;;;;;;;23.20;12.67;;;;;;;;;;733997;190;819699;-61
2022/11/21 08:00:08;;;;;;;25.80;14.40;;;;;;;;;;736146;190;920757;-64
2022/11/21 08:02:34;;;;;;;29.00;14.50;;;;;;;;;;747987;186;748396;-62
2022/11/21 08:05:00;;;;;;;22.57;13.00;;;;;;;;;;736680;190;717015;-64
2022/11/21 08:07:27;;;;;;;26.40;14.47;;;;;;;;;;734307;190;816827;-61
2022/11/21 08:09:52;;;;;;;20.77;14.00;;;;;;;;;;737256;190;919223;-64
2022/11/21 08:12:18;;;;;;;27.30;15.13;;;;;;;;;;737219;190;714762;-62
2022/11/21 08:14:44;;;;;;;24.57;12.67;;;;;;;;;;733503;190;908962;-64
2022/11/21 08:17:10;;;;;;;25.70;13.40;;;;;;;;;;735988;190;918675;-61
2022/11/21 08:19:36;;;;;;;30.07;12.83;;;;;;;;;;730984;190;917619;-60
2022/11/21 08:22:02;;;;;;;27.50;14.30;;;;;;;;;;730380;190;917453;-60
2022/11/21 08:24:28;;;;;;;22.70;12.55;;;;;;;;;;731044;190;918569;-63
2022/11/21 08:26:54;;;;;;;23.30;14.40;;;;;;;;;;735398;190;901068;-63
2022/11/21 08:29:20;;;;;;;20.40;12.17;;;;;;;;;;736699;190;922166;-60
2022/11/21 08:31:45;;;;;;;21.70;10.83;;;;;;;;;;734543;190;919378;-61
2022/11/21 08:34:11;;;;;;;20.03;11.07;;;;;;;;;;736715;190;919607;-64
2022/11/21 08:36:37;;;;;;;18.10;11.87;;;;;;;;;;732817;190;919285;-64
2022/11/21 08:39:03;;;;;;;20.50;11.70;;;;;;;;;;732104;190;918761;-61
2022/11/21 08:44:00;;;;;;;18.43;10.43;;;;;;;;;;731791;189;918984;-61
2022/11/21 08:46:27;;;;;;;19.67;11.47;;;;;;;;;;731717;190;918631;-61
2022/11/21 08:48:53;;;;;;;22.00;11.07;;;;;;;;;;729877;190;921267;-60
2022/11/21 08:51:18;;;;;;;18.93;10.33;;;;;;;;;;737407;190;920392;-61
2022/11/21 08:53:44;;;;;;;20.40;11.38;;;;;;;;;;732368;190;919016;-61
2022/11/21 08:56:10;;;;;;;18.23;12.77;;;;;;;;;;733429;190;918177;-61
2022/11/21 08:58:35;;;;;;;22.23;12.63;;;;;;;;;;737281;189;906714;-64
2022/11/21 09:01:01;;;;;;;22.20;12.47;;;;;;;;;;736326;190;918867;-64
2022/11/21 09:03:27;;;;;;;21.47;12.73;;;;;;;;;;731358;189;919182;-62
2022/11/21 09:05:53;;;;;;;23.87;13.52;;;;;;;;;;739567;190;814053;-61
2022/11/21 09:08:19;;;;;;;17.63;12.07;;;;;;;;;;731479;190;908784;-62
2022/11/21 09:10:45;;;;;;;23.87;13.77;;;;;;;;;;729358;190;879924;-62
2022/11/21 09:13:11;;;;;;;21.27;12.47;;;;;;;;;;732861;190;915100;-65
2022/11/21 09:18:08;;;;;;;22.77;13.60;;;;;;;;;;734659;190;816652;-61
2022/11/21 09:20:38;;;;;;;24.23;12.37;;;;;;;;;;731620;188;915291;-63
2022/11/21 09:23:05;;;;;;;20.62;12.68;;;;;;;;;;733877;190;920449;-64
2022/11/21 09:25:30;;;;;;;17.73;10.57;;;;;;;;;;733579;190;918338;-61
2022/11/21 09:27:58;;;;;;;18.00;11.03;;;;;;;;;;729696;191;919064;-64
2022/11/21 09:30:24;;;;;;;18.13;12.20;;;;;;;;;;731285;190;1021059;-62
2022/11/21 09:32:50;;;;;;;13.17;9.37;;;;;;;;;;740319;190;917084;-65
2022/11/21 09:35:16;;;;;;;14.70;10.63;;;;;;;;;;732891;190;918693;-61
2022/11/21 09:37:42;;;;;;;15.97;11.33;;;;;;;;;;732055;190;920658;-65
2022/11/21 09:40:08;;;;;;;17.65;13.15;;;;;;;;;;734540;190;921969;-65
2022/11/21 09:42:37;;;;;;;14.57;10.37;;;;;;;;;;732461;188;918549;-64
2022/11/21 09:45:06;;;;;;;18.00;10.47;;;;;;;;;;733980;190;919302;-65
2022/11/21 09:47:32;;;;;;;18.90;12.60;;;;;;;;;;731192;190;885882;-62
2022/11/21 09:49:59;;;;;;;16.40;10.10;;;;;;;;;;738597;190;817515;-62
2022/11/21 09:52:40;;;;;;;13.80;9.93;;;;;;;;;;731681;190;918296;-62
2022/11/21 09:55:06;;;;;;;13.80;9.77;;;;;;;;;;729887;190;919422;-62
2022/11/21 09:57:32;;;;;;;12.17;8.30;;;;;;;;;;729931;190;919093;-62
2022/11/21 09:59:57;;;;;;;12.23;8.10;;;;;;;;;;739045;190;919279;-62
2022/11/21 10:02:23;;;;;;;13.17;7.73;;;;;;;;;;732967;190;918354;-62
2022/11/21 10:04:49;;;;;;;9.87;7.13;;;;;;;;;;733207;190;923573;-62
2022/11/21 10:07:16;;;;;;;10.53;6.83;;;;;;;;;;732757;190;919273;-62
2022/11/21 10:09:45;;;;;;;9.90;6.80;;;;;;;;;;735844;188;915979;-61
2022/11/21 10:15:11;;;;;;;10.73;7.30;;;;;;;;;;733058;190;919374;-61
2022/11/21 10:17:42;;;;;;;9.63;6.60;;;;;;;;;;716977;189;915580;-64
2022/11/21 10:20:08;;;;;;;10.20;7.23;;;;;;;;;;732710;190;918929;-67
2022/11/21 10:22:50;;;;;;;9.90;6.90;;;;;;;;;;736524;189;919408;-62
2022/11/21 10:25:18;;;;;;;8.95;6.00;;;;;;;;;;731718;188;922448;-65
2022/11/21 10:27:46;;;;;;;10.23;6.67;;;;;;;;;;737807;189;919829;-64
2022/11/21 10:30:13;;;;;;;13.50;6.43;;;;;;;;;;731623;191;830162;-61
2022/11/21 10:32:38;;;;;;;7.93;6.40;;;;;;;;;;737580;190;817091;-62
2022/11/21 10:35:04;;;;;;;9.27;7.07;;;;;;;;;;740931;190;919093;-61
2022/11/21 10:37:38;;;;;;;8.10;6.70;;;;;;;;;;734048;189;816719;-62
2022/11/21 10:40:08;;;;;;;10.57;6.72;;;;;;;;;;729050;191;916553;-61
2022/11/21 10:42:35;;;;;;;10.50;6.30;;;;;;;;;;735064;190;917538;-62
2022/11/21 10:47:32;;;;;;;9.80;6.80;;;;;;;;;;737750;189;918893;-62
2022/11/21 10:49:59;;;;;;;11.53;7.60;;;;;;;;;;735590;190;947499;-66
2022/11/21 10:52:24;;;;;;;10.20;6.50;;;;;;;;;;732484;190;918185;-61
2022/11/21 10:55:11;;;;;;;8.87;6.00;;;;;;;;;;737919;190;918303;-62
2022/11/21 10:57:45;;;;;;;8.97;6.03;;;;;;;;;;736506;188;918749;-63
2022/11/21 11:00:26;;;;;;;8.57;6.13;;;;;;;;;;737766;190;911266;-65
2022/11/21 11:02:59;;;;;;;9.37;5.43;;;;;;;;;;740434;188;920003;-65
2022/11/21 11:05:24;;;;;;;7.70;5.33;;;;;;;;;;735422;190;919037;-61
2022/11/21 11:07:55;;;;;;;7.47;5.20;;;;;;;;;;734558;190;919143;-64
2022/11/21 11:10:21;;;;;;;9.73;5.20;;;;;;;;;;733588;190;920701;-65
2022/11/21 11:15:20;;;;;;;7.57;4.95;;;;;;;;;;733385;190;921844;-64
2022/11/21 11:17:46;;;;;;;7.53;5.33;;;;;;;;;;732152;190;915263;-65
2022/11/21 11:20:27;;;;;;;8.90;5.00;;;;;;;;;;736376;189;818946;-62
2022/11/21 11:22:53;;;;;;;10.00;5.30;;;;;;;;;;738483;188;824112;-66
2022/11/21 11:25:19;;;;;;;8.97;5.10;;;;;;;;;;733821;190;915624;-61
2022/11/21 11:27:45;;;;;;;9.13;5.40;;;;;;;;;;735997;189;813882;-61
2022/11/21 11:30:11;;;;;;;8.60;5.33;;;;;;;;;;735192;190;919305;-62
2022/11/21 11:32:36;;;;;;;8.48;5.20;;;;;;;;;;733024;191;816207;-61
2022/11/21 11:35:03;;;;;;;9.63;5.90;;;;;;;;;;727205;191;918715;-61
2022/11/21 11:37:42;;;;;;;6.93;5.13;;;;;;;;;;733436;189;916046;-66
2022/11/21 11:40:14;;;;;;;8.70;5.30;;;;;;;;;;732443;190;936993;-65
2022/11/21 11:48:00;;;;;;;7.83;5.00;;;;;;;;;;740397;187;919046;-66
2022/11/21 11:50:30;;;;;;;9.83;5.80;;;;;;;;;;736731;190;917524;-65
2022/11/21 11:52:56;;;;;;;8.37;4.70;;;;;;;;;;732355;190;919383;-61
2022/11/21 11:55:23;;;;;;;11.03;4.70;;;;;;;;;;739075;190;819981;-66
2022/11/21 11:57:49;;;;;;;9.10;5.00;;;;;;;;;;734600;190;918946;-61
2022/11/21 12:00:15;;;;;;;8.50;5.13;;;;;;;;;;735533;190;919190;-61
2022/11/21 12:02:47;;;;;;;13.90;5.00;;;;;;;;;;731130;190;925559;-64
2022/11/21 12:05:14;;;;;;;11.63;6.03;;;;;;;;;;736447;190;918467;-65
2022/11/21 12:07:40;;;;;;;10.30;5.90;;;;;;;;;;731680;190;919577;-60
2022/11/21 12:10:12;;;;;;;8.80;5.53;;;;;;;;;;731189;191;918424;-64
2022/11/21 12:12:38;;;;;;;7.77;4.60;;;;;;;;;;732550;190;822239;-61
2022/11/21 12:18:05;;;;;;;9.70;5.97;;;;;;;;;;732643;191;919131;-61
2022/11/21 12:20:39;;;;;;;8.93;4.75;;;;;;;;;;733089;191;918812;-63
2022/11/21 12:23:05;;;;;;;9.63;5.23;;;;;;;;;;737356;187;773154;-61
2022/11/21 12:25:30;;;;;;;6.80;4.10;;;;;;;;;;730059;188;918956;-63
2022/11/21 12:27:56;;;;;;;9.17;5.27;;;;;;;;;;731866;191;916390;-61
2022/11/21 12:30:28;;;;;;;8.47;5.03;;;;;;;;;;740555;190;919147;-64
2022/11/21 12:32:55;;;;;;;10.37;4.93;;;;;;;;;;731160;189;919207;-61
2022/11/21 12:35:24;;;;;;;10.07;4.57;;;;;;;;;;733087;191;918267;-60
2022/11/21 12:37:57;;;;;;;10.90;5.10;;;;;;;;;;736193;190;924431;-61
2022/11/21 12:40:28;;;;;;;11.00;5.80;;;;;;;;;;739026;190;918983;-65
2022/11/21 12:43:09;;;;;;;7.43;4.53;;;;;;;;;;726458;190;919066;-66
2022/11/21 12:45:34;;;;;;;8.83;5.13;;;;;;;;;;723618;193;918955;-64
2022/11/21 12:55:56;;;;;;;9.30;6.30;;;;;;;;;;726883;190;918697;-61
2022/11/21 12:58:26;;;;;;;8.25;5.95;;;;;;;;;;737757;190;936772;-60
2022/11/21 13:00:58;;;;;;;9.57;5.63;;;;;;;;;;733908;190;919643;-60
2022/11/21 13:03:33;;;;;;;9.83;6.13;;;;;;;;;;734963;190;921313;-65
2022/11/21 13:05:59;;;;;;;12.30;5.70;;;;;;;;;;733478;190;920083;-65
2022/11/21 13:08:25;;;;;;;8.98;5.90;;;;;;;;;;732557;191;916456;-61
2022/11/21 13:11:57;;;;;;;12.93;6.50;;;;;;;;;;736751;188;819812;-66
2022/11/21 13:13:23;;;;;;;8.17;5.53;;;;;;;;;;729097;190;919247;-64
2022/11/21 13:15:50;;;;;;;11.37;5.83;;;;;;;;;;735049;190;816658;-60
2022/11/21 13:18:16;;;;;;;9.13;6.23;;;;;;;;;;738053;190;867541;-65
2022/11/21 13:20:45;;;;;;;14.67;6.37;;;;;;;;;;735071;190;919433;-61
2022/11/21 13:23:17;;;;;;;9.70;6.20;;;;;;;;;;727803;190;919457;-65
2022/11/21 13:25:45;;;;;;;8.73;6.47;;;;;;;;;;728813;190;816849;-59
2022/11/21 13:28:25;;;;;;;11.40;6.93;;;;;;;;;;739648;190;817490;-59
2022/11/21 13:30:52;;;;;;;12.30;7.07;;;;;;;;;;736655;186;919466;-63
2022/11/21 13:33:24;;;;;;;11.00;7.80;;;;;;;;;;735680;190;838983;-60
2022/11/21 13:35:56;;;;;;;12.47;6.33;;;;;;;;;;737371;189;915960;-64
2022/11/21 13:38:22;;;;;;;14.03;7.20;;;;;;;;;;732422;190;913791;-63
2022/11/21 13:43:21;;;;;;;10.30;7.00;;;;;;;;;;734734;191;815873;-60
2022/11/21 13:45:49;;;;;;;9.70;5.87;;;;;;;;;;728880;190;919389;-64
2022/11/21 13:48:19;;;;;;;9.60;6.50;;;;;;;;;;732615;190;919700;-60
2022/11/21 13:50:51;;;;;;;8.90;6.37;;;;;;;;;;740554;190;919653;-60
2022/11/21 13:53:31;;;;;;;10.97;5.97;;;;;;;;;;734059;189;904654;-60
2022/11/21 13:55:58;;;;;;;9.23;6.37;;;;;;;;;;726824;191;921563;-60
2022/11/21 13:58:27;;;;;;;14.50;8.30;;;;;;;;;;725539;190;921843;-60
2022/11/21 14:00:58;;;;;;;10.63;7.10;;;;;;;;;;733648;190;919546;-60
2022/11/21 14:03:28;;;;;;;13.10;7.30;;;;;;;;;;734141;190;866487;-60
2022/11/21 14:06:12;;;;;;;10.33;7.23;;;;;;;;;;730879;193;921136;-64
2022/11/21 14:08:39;;;;;;;8.50;6.00;;;;;;;;;;737656;191;918236;-59
2022/11/21 14:11:10;;;;;;;11.40;6.43;;;;;;;;;;728107;190;919175;-64
2022/11/21 14:13:35;;;;;;;13.52;7.60;;;;;;;;;;733136;189;916791;-59
2022/11/21 14:16:02;;;;;;;16.25;7.55;;;;;;;;;;735190;190;923755;-63
2022/11/21 14:18:28;;;;;;;11.47;6.53;;;;;;;;;;746326;186;911991;-64
2022/11/21 14:20:56;;;;;;;9.87;6.43;;;;;;;;;;733374;187;819836;-60
2022/11/21 14:23:20;;;;;;;12.48;7.12;;;;;;;;;;732108;190;814593;-63
2022/11/21 14:25:48;;;;;;;11.17;6.70;;;;;;;;;;739702;190;920323;-64
2022/11/21 14:28:14;;;;;;;11.10;7.03;;;;;;;;;;735354;190;913430;-64
2022/11/21 14:30:40;;;;;;;12.27;7.50;;;;;;;;;;736098;190;807154;-63
2022/11/21 14:33:12;;;;;;;11.17;7.33;;;;;;;;;;737574;191;902127;-64
2022/11/21 14:35:38;;;;;;;11.30;8.07;;;;;;;;;;733942;190;818963;-60
2022/11/21 14:38:04;;;;;;;9.90;7.40;;;;;;;;;;732386;190;850429;-60
2022/11/21 14:40:31;;;;;;;15.20;8.10;;;;;;;;;;731961;190;916123;-64
2022/11/21 14:42:57;;;;;;;15.80;8.00;;;;;;;;;;737683;190;918924;-65